Time;durP1;ratioP1;P1;durP2;ratioP2;P2;SDS_P1;SDS_P2;PMS_P1;PMS_P2;Temp;Humidity;BMP_temperature;BMP_pressure;BME280_temperature;BME280_humidity;BME280_pressure;Samples;Min_cycle;Max_cycle;Signal;HPM_P1;HPM_P2
2023/01/27 00:00:37;;;;;;;3.20;3.10;;;;;;;2.30;100.00;101580.22;6143848;23;20298;-75
2023/01/27 00:03:04;;;;;;;3.22;3.08;;;;;;;3.16;100.00;101717.22;6139882;23;20056;-74
2023/01/27 00:05:30;;;;;;;3.00;2.90;;;;;;;2.62;100.00;101619.84;6170153;23;20030;-75
2023/01/27 00:07:57;;;;;;;3.50;3.30;;;;;;;3.16;100.00;101753.53;6104438;23;20120;-76
2023/01/27 00:10:25;;;;;;;3.85;3.65;;;;;;;2.85;100.00;101654.31;6141379;23;20051;-75
2023/01/27 00:15:37;;;;;;;3.30;3.20;;;;;;;2.65;100.00;101649.19;6139471;23;20623;-75
2023/01/27 00:18:03;;;;;;;3.70;3.50;;;;;;;2.92;100.00;101670.69;6161367;23;20648;-75
2023/01/27 00:26:07;;;;;;;3.70;3.50;;;;;;;3.24;100.00;101721.53;6141893;23;20033;-76
2023/01/27 00:28:35;;;;;;;3.10;3.00;;;;;;;3.17;100.00;101711.19;6143495;23;20025;-77
2023/01/27 00:31:02;;;;;;;3.63;3.42;;;;;;;3.26;100.00;101727.56;6175671;23;20025;-75
2023/01/27 00:33:29;;;;;;;3.80;3.60;;;;;;;2.80;100.00;101645.66;6138363;23;20048;-74
2023/01/27 00:36:04;;;;;;;4.10;3.80;;;;;;;3.29;100.00;101730.16;6174502;23;20781;-75
2023/01/27 00:38:34;;;;;;;4.80;3.72;;;;;;;3.22;100.00;101718.94;6139173;23;20044;-76
2023/01/27 00:41:18;;;;;;;3.50;3.30;;;;;;;3.19;100.00;101709.44;6175598;23;20035;-76
2023/01/27 00:43:50;;;;;;;4.90;3.88;;;;;;;3.42;100.00;101723.16;6137266;23;20819;-76
2023/01/27 00:46:18;;;;;;;5.18;4.68;;;;;;;2.87;100.00;101643.94;6147366;23;20029;-74
2023/01/27 00:48:45;;;;;;;3.30;3.20;;;;;;;2.57;100.00;101601.72;6143173;23;20694;-76
2023/01/27 00:51:12;;;;;;;3.38;3.25;;;;;;;2.96;100.00;101677.56;6146288;23;20021;-76
2023/01/27 00:53:39;;;;;;;3.60;3.30;;;;;;;3.25;100.00;101739.69;6114342;23;20030;-74
2023/01/27 00:56:07;;;;;;;3.58;3.40;;;;;;;3.17;100.00;101729.34;6149871;23;20057;-74
2023/01/27 00:58:33;;;;;;;3.88;3.67;;;;;;;3.26;100.00;101743.13;6144392;23;20021;-76
2023/01/27 01:01:02;;;;;;;4.50;4.10;;;;;;;2.58;100.00;101634.53;6147660;23;20050;-74
2023/01/27 01:03:31;;;;;;;4.65;4.28;;;;;;;2.03;100.00;101557.91;6142968;23;20399;-74
2023/01/27 01:06:03;;;;;;;3.40;3.30;;;;;;;3.11;100.00;101741.47;6171887;23;20024;-74
2023/01/27 01:08:30;;;;;;;4.10;3.83;;;;;;;3.28;100.00;101741.38;6139645;23;20045;-75
2023/01/27 01:10:57;;;;;;;3.53;3.25;;;;;;;2.47;100.00;101626.81;6174494;23;20263;-74
2023/01/27 01:13:26;;;;;;;3.58;3.38;;;;;;;3.26;100.00;101784.63;6143435;23;20189;-75
2023/01/27 01:15:53;;;;;;;4.43;4.13;;;;;;;2.73;100.00;101669.91;6169687;23;20043;-74
2023/01/27 01:18:20;;;;;;;3.83;3.60;;;;;;;3.21;100.00;101771.69;6140644;23;20256;-76
2023/01/27 01:20:46;;;;;;;6.10;3.10;;;;;;;2.96;100.00;101719.91;6165453;23;20023;-74
2023/01/27 01:23:14;;;;;;;3.40;3.20;;;;;;;2.93;100.00;101719.09;6140044;23;20025;-75
2023/01/27 01:25:41;;;;;;;4.88;4.40;;;;;;;3.23;100.00;101769.06;6145500;23;20017;-75
2023/01/27 01:28:08;;;;;;;5.07;4.78;;;;;;;3.10;100.00;101758.75;6144076;23;20126;-75
2023/01/27 01:30:36;;;;;;;3.80;3.60;;;;;;;3.14;100.00;101773.44;6140139;23;20016;-73
2023/01/27 01:33:03;;;;;;;3.47;3.28;;;;;;;3.13;100.00;101781.25;6141440;23;20052;-73
2023/01/27 01:35:29;;;;;;;3.80;3.60;;;;;;;2.73;100.00;101726.94;6171786;23;20017;-74
2023/01/27 01:37:56;;;;;;;16.65;3.97;;;;;;;2.38;100.00;101663.97;6145133;23;20363;-73
2023/01/27 01:40:24;;;;;;;4.80;4.47;;;;;;;2.68;100.00;101729.53;6162665;23;20036;-73
2023/01/27 01:42:52;;;;;;;3.72;3.53;;;;;;;3.00;100.00;101794.22;6142049;23;20045;-76
2023/01/27 01:45:32;;;;;;;4.30;4.00;;;;;;;2.98;100.00;101805.47;6129658;23;20558;-73
2023/01/27 01:48:02;;;;;;;4.78;3.70;;;;;;;2.98;100.00;101800.28;6143169;23;20519;-76
2023/01/27 01:50:29;;;;;;;4.00;3.78;;;;;;;2.93;100.00;101796.88;6132526;23;20025;-77
2023/01/27 01:52:57;;;;;;;3.75;3.55;;;;;;;2.39;100.00;101727.00;6168562;23;20393;-78
2023/01/27 01:55:23;;;;;;;4.18;3.80;;;;;;;2.21;100.00;101688.19;6138965;23;20025;-76
2023/01/27 01:57:50;;;;;;;4.78;4.45;;;;;;;2.50;100.00;101739.94;6170381;23;20386;-76
2023/01/27 02:00:17;;;;;;;3.47;3.33;;;;;;;1.83;100.00;101630.41;6143261;23;20401;-75
2023/01/27 02:02:45;;;;;;;3.35;3.08;;;;;;;2.93;100.00;101796.88;6165082;23;20510;-75
2023/01/27 02:05:23;;;;;;;4.93;3.10;;;;;;;2.91;100.00;101807.25;6115673;23;20028;-76
2023/01/27 02:08:16;;;;;;;3.10;3.00;;;;;;;2.99;100.00;101807.22;6172407;23;20012;-78
2023/01/27 02:10:43;;;;;;;3.47;3.28;;;;;;;2.96;100.00;101808.06;6136107;23;20024;-75
2023/01/27 02:13:09;;;;;;;3.83;3.53;;;;;;;2.77;100.00;101780.50;6168509;23;20048;-74
2023/01/27 02:15:37;;;;;;;3.70;3.50;;;;;;;2.55;100.00;101754.63;6141142;23;20029;-75
2023/01/27 02:18:04;;;;;;;5.75;4.15;;;;;;;1.76;100.00;101603.69;6169862;23;20022;-73
2023/01/27 02:20:44;;;;;;;4.25;3.95;;;;;;;2.97;100.00;101811.56;6110568;23;20028;-75
2023/01/27 02:23:23;;;;;;;8.93;3.25;;;;;;;2.53;100.00;101750.31;6136065;23;20408;-75
2023/01/27 02:26:16;;;;;;;3.80;3.50;;;;;;;2.93;100.00;101808.09;6140210;23;20093;-77
2023/01/27 02:28:43;;;;;;;3.80;3.55;;;;;;;2.40;100.00;101723.53;6139236;23;20026;-74
2023/01/27 02:31:09;;;;;;;3.85;3.65;;;;;;;2.24;100.00;101701.13;6142862;23;20017;-75
2023/01/27 02:33:36;;;;;;;4.72;4.38;;;;;;;2.02;100.00;101667.50;6114652;23;20088;-75
2023/01/27 02:36:08;;;;;;;4.82;4.43;;;;;;;2.41;100.00;101740.81;6165770;23;20642;-75
2023/01/27 02:39:04;;;;;;;4.20;3.83;;;;;;;2.80;100.00;101821.94;6143624;23;20032;-73
2023/01/27 02:41:35;;;;;;;4.60;4.22;;;;;;;2.78;100.00;101824.53;6141411;23;20021;-75
2023/01/27 02:44:02;;;;;;;3.97;3.67;;;;;;;2.74;100.00;101822.81;6140761;23;20212;-73
2023/01/27 02:46:29;;;;;;;6.20;4.60;;;;;;;2.30;100.00;101787.44;6164148;23;20239;-73
2023/01/27 02:48:56;;;;;;;4.55;4.25;;;;;;;2.48;100.00;101812.47;6142487;23;20033;-76
2023/01/27 02:51:22;;;;;;;5.55;5.13;;;;;;;2.08;100.00;101755.50;6135491;23;20051;-74
2023/01/27 02:53:49;;;;;;;5.50;4.53;;;;;;;2.19;100.00;101789.19;6137842;23;20341;-74
2023/01/27 02:56:15;;;;;;;9.10;4.13;;;;;;;1.86;100.00;101714.97;6143761;23;20043;-73
2023/01/27 02:58:42;;;;;;;5.75;5.10;;;;;;;2.52;100.00;101853.06;6120485;23;20101;-74
2023/01/27 03:01:08;;;;;;;4.00;3.72;;;;;;;2.40;100.00;101824.56;6116726;23;20621;-76
2023/01/27 03:03:35;;;;;;;4.13;3.83;;;;;;;2.52;100.00;101845.28;6172468;23;20476;-76
2023/01/27 03:06:01;;;;;;;3.55;3.35;;;;;;;2.30;100.00;101809.91;6122723;23;20021;-76
2023/01/27 03:08:28;;;;;;;3.70;3.50;;;;;;;0.99;100.00;101584.69;6144924;23;20032;-75
2023/01/27 03:10:54;;;;;;;3.92;3.63;;;;;;;1.97;100.00;101754.66;6143111;23;20451;-75
2023/01/27 03:13:26;;;;;;;4.20;3.53;;;;;;;2.36;100.00;101818.53;6141289;23;20080;-74
2023/01/27 03:18:40;;;;;;;3.65;3.35;;;;;;;2.05;100.00;101777.97;6144643;23;20426;-74
2023/01/27 03:21:06;;;;;;;3.30;3.13;;;;;;;2.28;100.00;101828.03;6144089;23;20044;-76
2023/01/27 03:23:33;;;;;;;3.10;2.97;;;;;;;1.70;100.00;101717.53;6142843;23;20038;-73
2023/01/27 03:26:01;;;;;;;6.47;3.90;;;;;;;1.85;100.00;101746.91;6147111;23;20020;-74
2023/01/27 03:28:27;;;;;;;3.58;3.38;;;;;;;1.99;100.00;101758.97;6172391;23;20062;-75
2023/01/27 03:31:01;;;;;;;3.63;3.30;;;;;;;2.46;100.00;101850.47;6145713;23;20025;-74
2023/01/27 03:33:28;;;;;;;4.22;3.92;;;;;;;1.64;100.00;101707.16;6141496;23;20514;-75
2023/01/27 03:46:55;;;;;;;3.88;3.55;;;;;;;1.81;100.00;101797.78;6171046;23;20030;-74
2023/01/27 03:49:21;;;;;;;4.53;4.22;;;;;;;1.35;100.00;101717.50;6140546;23;20357;-74
2023/01/27 03:51:48;;;;;;;3.40;3.20;;;;;;;1.62;100.00;101788.25;6169651;23;20075;-74
2023/01/27 03:54:14;;;;;;;3.88;3.67;;;;;;;1.14;100.00;101700.19;6139204;23;20086;-74
2023/01/27 03:56:40;;;;;;;3.42;3.28;;;;;;;1.28;100.00;101720.91;6168643;23;20040;-74
2023/01/27 03:59:07;;;;;;;4.28;4.03;;;;;;;2.14;100.00;101864.28;6142991;23;20382;-75
2023/01/27 04:01:33;;;;;;;3.88;3.58;;;;;;;1.59;100.00;101764.09;6168947;23;20025;-75
2023/01/27 04:06:50;;;;;;;3.22;3.13;;;;;;;0.96;100.00;101651.88;6172213;23;20576;-74
2023/01/27 04:09:20;;;;;;;3.13;3.03;;;;;;;2.01;100.00;101826.28;6143994;23;20028;-76
2023/01/27 04:11:59;;;;;;;3.00;2.90;;;;;;;1.87;100.00;101823.69;6143097;23;20537;-74
2023/01/27 04:14:37;;;;;;;3.58;3.38;;;;;;;1.77;100.00;101791.72;6122766;23;20431;-74
2023/01/27 04:17:15;;;;;;;3.50;3.30;;;;;;;1.48;100.00;101781.31;6173705;23;20047;-74
2023/01/27 04:19:42;;;;;;;5.97;3.10;;;;;;;1.68;100.00;101796.03;6141941;23;20524;-74
2023/01/27 04:22:10;;;;;;;7.13;3.42;;;;;;;2.12;100.00;101857.38;6144081;23;20458;-74
2023/01/27 04:24:37;;;;;;;2.90;2.80;;;;;;;1.28;100.00;101736.41;6167315;23;20038;-74
2023/01/27 04:27:06;;;;;;;3.67;3.38;;;;;;;1.81;100.00;101815.03;6144896;23;20023;-74
2023/01/27 04:29:35;;;;;;;4.55;3.20;;;;;;;2.16;100.00;101882.41;6133440;23;20455;-75
2023/01/27 04:32:04;;;;;;;3.40;3.22;;;;;;;2.08;100.00;101858.22;6163661;23;20047;-75
2023/01/27 04:34:31;;;;;;;3.58;3.38;;;;;;;1.95;100.00;101840.09;6138993;23;20052;-73
2023/01/27 04:36:59;;;;;;;2.92;2.83;;;;;;;2.30;100.00;101882.44;6173717;23;20191;-75
2023/01/27 04:39:25;;;;;;;4.03;3.72;;;;;;;2.24;100.00;101887.59;6139756;23;20484;-74
2023/01/27 04:41:52;;;;;;;3.97;3.47;;;;;;;1.93;100.00;101841.81;6168617;23;20142;-75
2023/01/27 04:44:21;;;;;;;2.92;2.83;;;;;;;1.78;100.00;101840.06;6142307;23;20017;-74
2023/01/27 04:46:48;;;;;;;2.70;2.60;;;;;;;2.12;100.00;101896.22;6167481;23;20229;-74
2023/01/27 04:49:15;;;;;;;3.10;3.00;;;;;;;1.73;100.00;101827.97;6144061;23;20106;-75
2023/01/27 04:51:41;;;;;;;3.25;3.05;;;;;;;1.48;100.00;101807.16;6169842;23;20410;-76
2023/01/27 04:54:08;;;;;;;3.70;3.53;;;;;;;1.92;100.00;101922.91;6144810;23;20013;-73
2023/01/27 04:56:40;;;;;;;4.38;4.00;;;;;;;1.88;100.00;101899.59;6169726;23;20179;-74
2023/01/27 04:59:10;;;;;;;3.83;3.53;;;;;;;1.80;100.00;101912.50;6144810;23;20078;-74
2023/01/27 05:01:36;;;;;;;2.80;2.70;;;;;;;1.19;100.00;101814.84;6170863;23;20016;-74
2023/01/27 05:04:03;;;;;;;3.60;3.40;;;;;;;1.83;100.00;101911.69;6140254;23;20068;-75
2023/01/27 05:06:29;;;;;;;3.85;3.55;;;;;;;0.67;100.00;101713.78;6167275;23;20017;-72
2023/01/27 05:08:56;;;;;;;2.70;2.60;;;;;;;1.88;100.00;101917.72;6139301;23;20463;-77
2023/01/27 05:11:22;;;;;;;4.45;4.15;;;;;;;1.88;100.00;101934.09;6134773;23;20045;-76
2023/01/27 05:13:49;;;;;;;4.07;3.85;;;;;;;1.19;100.00;101813.09;6141790;23;20031;-75
2023/01/27 05:16:20;;;;;;;4.18;3.95;;;;;;;1.55;100.00;101855.50;6115016;23;20072;-74
2023/01/27 05:18:49;;;;;;;3.72;3.53;;;;;;;1.96;100.00;101928.97;6174038;23;20462;-74
2023/01/27 05:21:19;;;;;;;7.53;3.25;;;;;;;2.03;100.00;101929.88;6112560;23;20361;-74
2023/01/27 05:23:45;;;;;;;6.10;3.53;;;;;;;1.19;100.00;101789.84;6147754;23;20024;-73
2023/01/27 05:26:21;;;;;;;3.50;3.30;;;;;;;2.03;100.00;101929.88;6144496;23;20046;-74
2023/01/27 05:28:49;;;;;;;4.63;4.18;;;;;;;1.68;100.00;101874.50;6164957;23;20388;-74
2023/01/27 05:31:22;;;;;;;9.98;4.38;;;;;;;1.39;100.00;101823.53;6143707;23;20017;-74
2023/01/27 05:33:50;;;;;;;;;;;;;;;2.08;100.00;101943.69;6143304;23;20486;-75
2023/01/27 05:36:18;;;;;;;5.32;4.97;;;;;;;2.10;100.00;101947.13;6128051;23;19920;-76
2023/01/27 05:38:45;;;;;;;4.35;4.03;;;;;;;2.12;100.00;101945.41;6170548;23;20087;-75
2023/01/27 05:41:13;;;;;;;3.47;3.28;;;;;;;2.16;100.00;101952.31;6138122;23;20501;-74
2023/01/27 05:43:42;;;;;;;5.75;4.57;;;;;;;2.12;100.00;101935.91;6129713;23;20494;-73
2023/01/27 05:46:17;;;;;;;4.47;4.07;;;;;;;2.19;100.00;101963.56;6135807;23;20100;-74
2023/01/27 05:48:47;;;;;;;5.75;4.53;;;;;;;2.23;100.00;101956.69;6144923;23;20025;-75
2023/01/27 05:51:15;;;;;;;4.03;3.67;;;;;;;1.84;100.00;101878.00;6142374;23;20036;-75
2023/01/27 05:53:42;;;;;;;3.25;3.13;;;;;;;2.31;100.00;101977.44;6144158;23;20034;-74
2023/01/27 05:56:11;;;;;;;4.68;4.25;;;;;;;1.61;100.00;101846.91;6139431;23;20066;-75
2023/01/27 05:58:38;;;;;;;3.22;3.13;;;;;;;2.28;100.00;101957.53;6171457;23;20091;-73
2023/01/27 06:01:12;;;;;;;3.15;2.95;;;;;;;2.26;100.00;101969.63;6114634;23;20078;-75
2023/01/27 06:03:40;;;;;;;4.40;4.13;;;;;;;2.30;100.00;101958.41;6143164;23;20541;-73
2023/01/27 06:06:08;;;;;;;4.03;3.75;;;;;;;2.32;100.00;101966.19;6142783;23;20021;-74
2023/01/27 06:08:35;;;;;;;5.07;4.72;;;;;;;1.59;100.00;101846.03;6171902;23;20267;-76
2023/01/27 06:11:02;;;;;;;20.52;19.52;;;;;;;0.96;100.00;101738.06;5925723;23;20329;-76
2023/01/27 06:13:29;;;;;;;5.00;3.20;;;;;;;2.36;100.00;101970.50;6163692;23;20203;-74
2023/01/27 06:15:55;;;;;;;6.07;4.90;;;;;;;1.69;100.00;101868.50;6112165;23;20041;-74
2023/01/27 06:18:22;;;;;;;4.35;3.42;;;;;;;2.40;100.00;101974.84;6169525;23;20434;-74
2023/01/27 06:20:49;;;;;;;4.53;3.92;;;;;;;1.88;100.00;101890.09;6134785;23;20014;-75
2023/01/27 06:23:16;;;;;;;3.55;3.10;;;;;;;1.91;100.00;101889.28;6123591;23;20104;-74
2023/01/27 06:25:46;;;;;;;4.85;4.15;;;;;;;1.74;100.00;101871.94;6134632;23;20024;-74
2023/01/27 06:28:13;;;;;;;4.72;4.18;;;;;;;2.14;100.00;101934.19;6155715;23;20036;-75
2023/01/27 06:30:54;;;;;;;3.63;3.42;;;;;;;2.27;100.00;101945.47;6176064;23;20098;-74
2023/01/27 06:33:21;;;;;;;4.63;4.25;;;;;;;2.20;100.00;101959.25;6140425;23;20033;-74
2023/01/27 06:35:47;;;;;;;4.43;4.03;;;;;;;2.04;100.00;101923.81;6144183;23;20033;-75
2023/01/27 06:38:14;;;;;;;5.65;5.15;;;;;;;2.40;100.00;101977.44;6154293;23;20149;-74
2023/01/27 06:40:41;;;;;;;3.80;3.50;;;;;;;1.73;100.00;101853.84;6169061;23;20024;-73
2023/01/27 06:43:12;;;;;;;6.28;4.38;;;;;;;2.36;100.00;101966.19;6140502;23;20768;-74
2023/01/27 06:45:39;;;;;;;5.15;4.65;;;;;;;2.03;100.00;101924.69;6172576;23;20020;-74
2023/01/27 06:48:07;;;;;;;4.50;4.10;;;;;;;1.76;100.00;101880.59;6144931;23;20108;-72
2023/01/27 06:50:34;;;;;;;4.70;4.40;;;;;;;2.38;100.00;101992.09;6173588;23;20103;-74
2023/01/27 06:53:04;;;;;;;4.82;4.45;;;;;;;2.26;100.00;101974.81;6143482;23;20021;-75
2023/01/27 06:55:31;;;;;;;4.07;3.88;;;;;;;2.18;100.00;101963.56;6172365;23;20757;-74
2023/01/27 06:57:57;;;;;;;5.45;4.97;;;;;;;2.46;100.00;101997.31;6111768;23;20032;-73
2023/01/27 07:00:24;;;;;;;4.65;4.35;;;;;;;2.35;100.00;101979.16;6170939;23;20565;-75
2023/01/27 07:02:52;;;;;;;3.72;3.42;;;;;;;1.70;100.00;101882.28;6141523;23;20431;-76
2023/01/27 07:05:19;;;;;;;4.13;3.90;;;;;;;1.96;100.00;101916.88;6097928;23;20022;-76
2023/01/27 07:07:45;;;;;;;3.63;3.35;;;;;;;2.46;100.00;102005.94;6137574;23;20561;-75
2023/01/27 07:10:11;;;;;;;3.95;3.65;;;;;;;1.78;100.00;101880.59;6140218;23;20037;-74
2023/01/27 07:12:38;;;;;;;4.22;3.92;;;;;;;2.03;100.00;101917.78;6137768;23;20534;-75
2023/01/27 07:15:07;;;;;;;4.93;4.63;;;;;;;2.07;100.00;101934.19;6134172;23;20027;-74
2023/01/27 07:17:34;;;;;;;4.78;4.38;;;;;;;2.57;100.00;102024.97;6172304;23;20376;-75
2023/01/27 07:20:02;;;;;;;4.95;4.65;;;;;;;2.10;100.00;101957.50;6144104;23;20118;-75
2023/01/27 07:22:29;;;;;;;5.35;4.28;;;;;;;2.53;100.00;102018.06;6140664;23;20425;-74
2023/01/27 07:24:55;;;;;;;6.38;4.15;;;;;;;2.25;100.00;101970.50;6143851;23;20034;-74
2023/01/27 07:27:23;;;;;;;4.70;4.30;;;;;;;2.62;100.00;102022.38;6173014;23;20353;-70
2023/01/27 07:29:50;;;;;;;6.57;4.68;;;;;;;2.49;100.00;102005.09;6142827;23;20016;-72
2023/01/27 07:32:17;;;;;;;4.10;3.45;;;;;;;2.62;100.00;102013.75;6175590;23;20222;-72
2023/01/27 07:34:43;;;;;;;3.53;3.33;;;;;;;2.31;100.00;101952.38;6144265;23;20611;-71
2023/01/27 07:37:10;;;;;;;3.85;3.65;;;;;;;2.15;100.00;101919.53;6142499;23;20037;-71
2023/01/27 07:39:37;;;;;;;4.45;4.03;;;;;;;2.76;100.00;102022.41;6145670;23;20974;-71
2023/01/27 07:42:04;;;;;;;3.97;3.78;;;;;;;2.78;100.00;102025.88;6138974;23;20025;-72
2023/01/27 07:44:31;;;;;;;4.75;4.22;;;;;;;2.79;100.00;102022.44;6172618;23;20277;-72
2023/01/27 07:46:58;;;;;;;6.00;4.88;;;;;;;2.79;100.00;102023.28;6140239;23;20020;-72
2023/01/27 07:49:25;;;;;;;4.43;4.13;;;;;;;2.74;100.00;102014.63;6145682;23;20452;-72
2023/01/27 07:51:53;;;;;;;5.63;4.07;;;;;;;2.82;100.00;102026.75;6175118;23;20013;-72
2023/01/27 07:54:19;;;;;;;4.57;4.35;;;;;;;2.34;100.00;101943.75;6143060;23;20096;-71
2023/01/27 07:56:46;;;;;;;4.93;4.47;;;;;;;2.12;100.00;101919.50;6136822;23;20029;-72
2023/01/27 07:59:12;;;;;;;4.45;3.78;;;;;;;2.84;100.00;102025.03;6140691;23;20435;-72
2023/01/27 08:01:40;;;;;;;4.65;4.32;;;;;;;2.81;100.00;102005.16;6118192;23;20221;-72
2023/01/27 08:04:07;;;;;;;4.97;4.57;;;;;;;2.71;100.00;101999.09;6140418;23;20021;-74
2023/01/27 08:06:33;;;;;;;4.20;3.90;;;;;;;2.30;100.00;101944.59;6137447;23;20473;-71
2023/01/27 08:08:59;;;;;;;5.18;4.80;;;;;;;2.30;100.00;101950.63;6135641;23;20033;-72
2023/01/27 08:11:26;;;;;;;4.53;4.15;;;;;;;2.41;100.00;101953.25;6131924;23;20414;-73
2023/01/27 08:13:52;;;;;;;5.93;5.45;;;;;;;1.78;100.00;101853.00;6129362;23;20012;-70
2023/01/27 08:16:19;;;;;;;5.88;4.28;;;;;;;1.46;100.00;101803.72;6128359;23;20376;-71
2023/01/27 08:18:45;;;;;;;6.75;3.30;;;;;;;2.90;100.00;102058.72;6137609;23;20013;-71
2023/01/27 08:21:12;;;;;;;4.53;4.22;;;;;;;2.50;100.00;101983.50;6139337;23;20052;-74
2023/01/27 08:23:38;;;;;;;5.20;4.10;;;;;;;2.72;100.00;102026.72;6140435;23;20017;-72
2023/01/27 08:26:06;;;;;;;3.83;3.63;;;;;;;2.57;100.00;101982.66;6142173;23;20091;-71
2023/01/27 08:28:34;;;;;;;5.63;5.28;;;;;;;2.62;100.00;101983.50;6141265;23;20085;-71
2023/01/27 08:31:08;;;;;;;10.23;3.63;;;;;;;2.78;100.00;102011.19;6143651;23;20025;-72
2023/01/27 08:33:35;;;;;;;5.53;5.03;;;;;;;2.94;100.00;102044.91;6130321;23;20334;-71
2023/01/27 08:36:04;;;;;;;4.38;4.07;;;;;;;2.83;100.00;102010.31;6140395;23;20017;-71
2023/01/27 08:38:33;;;;;;;4.30;4.00;;;;;;;2.97;100.00;102034.56;6155914;23;20314;-71
2023/01/27 08:41:07;;;;;;;4.75;4.45;;;;;;;1.79;100.00;101835.75;6142193;23;20103;-72
2023/01/27 08:43:34;;;;;;;6.82;4.47;;;;;;;3.05;100.00;102043.22;6169128;23;20369;-70
2023/01/27 08:46:01;;;;;;;4.30;4.05;;;;;;;2.56;100.00;101963.63;6137729;23;20025;-72
2023/01/27 08:48:28;;;;;;;4.40;4.10;;;;;;;3.10;100.00;102040.59;6140654;23;20374;-73
2023/01/27 08:50:55;;;;;;;4.50;4.10;;;;;;;3.02;100.00;102004.28;6169506;23;20037;-71
2023/01/27 08:53:23;;;;;;;4.90;4.50;;;;;;;3.22;100.00;102032.81;6111794;23;20262;-70
2023/01/27 08:55:50;;;;;;;4.00;3.67;;;;;;;3.26;100.00;102038.88;6167243;23;20016;-72
2023/01/27 08:58:16;;;;;;;3.85;3.65;;;;;;;3.11;100.00;102008.63;6144196;23;20033;-71
2023/01/27 09:00:43;;;;;;;4.45;4.15;;;;;;;3.23;100.00;102036.28;6167889;23;20021;-71
2023/01/27 09:03:10;;;;;;;4.18;3.80;;;;;;;3.00;100.00;102006.00;6115949;23;20580;-71
2023/01/27 09:05:37;;;;;;;4.72;4.43;;;;;;;3.27;100.00;102044.06;6168304;23;20013;-72
2023/01/27 09:08:04;;;;;;;4.22;3.97;;;;;;;3.13;100.00;102023.31;6113976;23;20020;-71
2023/01/27 09:10:30;;;;;;;4.38;4.07;;;;;;;3.01;100.00;101992.19;6164167;23;20095;-73
2023/01/27 09:12:57;;;;;;;4.90;4.43;;;;;;;3.42;100.00;102044.94;6143454;23;20268;-72
2023/01/27 09:15:23;;;;;;;4.88;4.28;;;;;;;3.31;100.00;102011.22;6114872;23;20025;-72
2023/01/27 09:17:50;;;;;;;6.20;4.47;;;;;;;3.36;100.00;102023.28;6122508;23;20042;-72
2023/01/27 09:20:16;;;;;;;4.30;4.05;;;;;;;2.50;100.00;101869.50;6138414;23;20021;-72
2023/01/27 09:22:42;;;;;;;4.30;4.10;;;;;;;3.57;100.00;102045.78;6134048;23;20080;-72
2023/01/27 09:25:13;;;;;;;4.72;4.32;;;;;;;3.26;100.00;102006.00;6144298;23;20392;-71
2023/01/27 09:27:39;;;;;;;6.18;4.25;;;;;;;3.08;100.00;101951.56;6171297;23;20023;-72
2023/01/27 09:30:08;;;;;;;3.83;3.60;;;;;;;3.76;100.00;102066.50;6142574;23;20004;-72
2023/01/27 09:32:34;;;;;;;5.38;4.97;;;;;;;3.36;100.00;101991.31;6167645;23;20027;-72
2023/01/27 09:35:00;;;;;;;4.40;4.10;;;;;;;3.87;100.00;102064.75;6111494;23;20024;-72
2023/01/27 09:37:27;;;;;;;9.00;4.88;;;;;;;3.92;100.00;102072.53;6171030;23;20025;-72
2023/01/27 09:39:57;;;;;;;6.32;4.55;;;;;;;3.84;100.00;102069.09;6135684;23;20287;-72
2023/01/27 09:42:42;;;;;;;4.40;4.10;;;;;;;3.89;100.00;102072.53;6162563;23;20346;-72
2023/01/27 09:45:45;;;;;;;5.15;4.70;;;;;;;3.84;100.00;102079.47;6139379;23;20364;-71
2023/01/27 09:48:45;;;;;;;3.85;3.60;;;;;;;3.81;100.00;102085.56;6136337;23;20024;-73
2023/01/27 09:51:24;;;;;;;4.97;3.80;;;;;;;3.83;100.00;102083.81;6165424;23;20028;-73
2023/01/27 09:54:05;;;;;;;3.97;3.72;;;;;;;3.82;100.00;102087.25;6138271;23;20208;-72
2023/01/27 09:56:40;;;;;;;4.50;3.80;;;;;;;3.83;100.00;102078.63;6141317;23;20708;-71
2023/01/27 09:59:15;;;;;;;5.43;4.68;;;;;;;3.91;100.00;102087.25;6138392;23;20070;-72
2023/01/27 10:02:15;;;;;;;4.28;3.90;;;;;;;2.84;100.00;101891.06;6140335;23;20241;-70
2023/01/27 10:05:17;;;;;;;4.78;4.38;;;;;;;4.00;100.00;102089.81;6140657;23;20607;-72
2023/01/27 10:08:04;;;;;;;4.43;4.20;;;;;;;2.83;100.00;101862.53;6096964;23;20411;-72
2023/01/27 10:10:58;;;;;;;4.07;3.88;;;;;;;4.07;100.00;102088.09;6141102;23;20032;-74
2023/01/27 10:13:41;;;;;;;6.20;4.95;;;;;;;4.07;100.00;102095.00;6169995;23;20036;-73
2023/01/27 10:16:24;;;;;;;4.80;4.40;;;;;;;4.09;100.00;102085.47;6140912;23;20025;-72
2023/01/27 10:19:28;;;;;;;5.28;4.80;;;;;;;4.06;100.00;102081.16;6131102;23;20076;-73
2023/01/27 10:22:29;;;;;;;4.13;3.85;;;;;;;4.00;100.00;102088.97;6105881;23;20522;-72
2023/01/27 10:25:14;;;;;;;5.18;4.78;;;;;;;4.00;100.00;102082.03;6140262;23;20117;-76
2023/01/27 10:27:47;;;;;;;6.43;5.00;;;;;;;3.65;100.00;102011.13;6145399;23;20025;-74
2023/01/27 10:30:35;;;;;;;5.18;4.78;;;;;;;3.06;100.00;101915.25;6134869;23;20083;-75
2023/01/27 10:33:18;;;;;;;5.03;4.63;;;;;;;3.46;100.00;101995.59;6138423;23;20357;-73
2023/01/27 10:36:10;;;;;;;4.30;4.00;;;;;;;3.87;100.00;102056.09;6131142;23;20036;-75
2023/01/27 10:38:50;;;;;;;5.07;4.78;;;;;;;4.18;100.00;102086.31;6134811;23;20103;-74
2023/01/27 10:41:26;;;;;;;5.35;4.43;;;;;;;4.20;100.00;102086.31;6136457;23;20041;-74
2023/01/27 10:44:18;;;;;;;4.38;4.03;;;;;;;4.30;100.00;102084.53;6128887;23;20040;-73
2023/01/27 10:47:07;;;;;;;4.95;4.50;;;;;;;4.17;100.00;102069.00;6133756;23;20017;-74
2023/01/27 10:49:48;;;;;;;5.18;4.78;;;;;;;4.28;100.00;102079.34;6114259;23;20045;-75
2023/01/27 10:52:19;;;;;;;4.28;3.97;;;;;;;4.02;100.00;102037.00;6114684;23;20515;-73
2023/01/27 10:55:27;;;;;;;6.32;4.75;;;;;;;4.35;100.00;102078.47;6158987;23;20020;-72
2023/01/27 10:57:59;;;;;;;5.05;4.70;;;;;;;3.97;100.00;102024.91;6114362;23;20070;-73
2023/01/27 11:00:40;;;;;;;5.03;4.53;;;;;;;4.31;100.00;102081.06;6130684;23;20045;-73
2023/01/27 11:03:45;;;;;;;4.55;4.25;;;;;;;4.32;100.00;102075.88;6162642;23;20243;-74
2023/01/27 11:06:19;;;;;;;3.30;3.20;;;;;;;4.23;100.00;102083.72;6137511;23;20396;-73
2023/01/27 11:08:50;;;;;;;4.63;4.30;;;;;;;4.25;100.00;102084.56;6133211;23;20029;-72
2023/01/27 11:14:33;;;;;;;5.13;4.75;;;;;;;4.37;100.00;102079.31;6133870;23;20357;-74
2023/01/27 11:17:14;;;;;;;4.53;4.22;;;;;;;3.59;100.00;101960.97;6171048;23;20083;-73
2023/01/27 11:19:47;;;;;;;6.25;5.75;;;;;;;4.27;100.00;102075.03;6134714;23;20082;-74
2023/01/27 11:22:21;;;;;;;6.90;6.25;;;;;;;4.20;100.00;102073.31;6172063;23;20048;-74
2023/01/27 11:25:00;;;;;;;4.55;4.25;;;;;;;4.01;100.00;102041.34;6111446;23;22743;-74
2023/01/27 11:27:43;;;;;;;5.47;4.93;;;;;;;3.92;100.00;102005.88;6143279;23;20068;-75
2023/01/27 11:30:38;;;;;;;5.20;4.90;;;;;;;3.80;100.00;101970.41;6107685;23;20025;-73
2023/01/27 11:33:28;;;;;;;4.20;3.95;;;;;;;3.95;100.00;101984.25;6132139;23;20021;-75
2023/01/27 11:35:54;;;;;;;4.15;3.85;;;;;;;4.26;100.00;102041.25;6138400;23;20159;-73
2023/01/27 11:38:22;;;;;;;4.32;4.03;;;;;;;4.42;100.00;102044.66;6137938;23;20052;-74
2023/01/27 11:40:51;;;;;;;4.53;4.03;;;;;;;4.50;100.00;102055.88;6169398;23;20021;-74
2023/01/27 11:43:24;;;;;;;3.83;3.63;;;;;;;4.46;100.00;102059.34;6142481;23;20029;-73
2023/01/27 11:45:59;;;;;;;4.28;4.05;;;;;;;4.11;100.00;101993.69;6139711;23;20028;-73
2023/01/27 11:48:35;;;;;;;4.05;3.80;;;;;;;4.46;100.00;102059.34;6148937;23;20033;-72
2023/01/27 11:51:02;;;;;;;4.75;4.45;;;;;;;4.54;100.00;102057.56;6168624;23;20021;-73
2023/01/27 11:53:38;;;;;;;4.35;4.00;;;;;;;3.95;100.00;101938.34;6140191;23;20055;-73
2023/01/27 11:56:14;;;;;;;3.92;3.67;;;;;;;4.60;100.00;102047.13;6119439;23;20333;-73
2023/01/27 11:58:52;;;;;;;4.20;4.00;;;;;;;4.39;100.00;102002.19;6142712;23;20029;-74
2023/01/27 12:01:27;;;;;;;4.03;3.83;;;;;;;4.72;100.00;102048.81;6125472;23;20005;-73
2023/01/27 12:04:06;;;;;;;5.13;4.70;;;;;;;4.68;100.00;102041.91;6138240;23;20366;-73
2023/01/27 12:06:44;;;;;;;5.20;4.80;;;;;;;4.00;100.00;101939.16;6134700;23;20037;-73
2023/01/27 12:09:34;;;;;;;4.13;3.90;;;;;;;4.76;100.00;102035.78;6142165;23;20013;-73